Time;durP1;ratioP1;P1;durP2;ratioP2;P2;SDS_P1;SDS_P2;PMS_P1;PMS_P2;Temp;Humidity;BMP_temperature;BMP_pressure;BME280_temperature;BME280_humidity;BME280_pressure;Samples;Min_cycle;Max_cycle;Signal;HPM_P1;HPM_P2
2022/07/02 00:01:36;;;;;;;11.50;4.45;;;;;;;22.23;30.38;99942.97;5042254;28;20087;-76
2022/07/02 00:04:06;;;;;;;12.95;4.90;;;;;;;22.15;30.47;99937.03;5075330;28;20036;-77
2022/07/02 00:06:35;;;;;;;13.20;4.82;;;;;;;22.21;30.48;99934.25;5075458;28;20042;-76
2022/07/02 00:09:01;;;;;;;12.95;4.93;;;;;;;21.97;30.71;99945.97;5075205;28;20043;-76
2022/07/02 00:11:27;;;;;;;11.00;5.20;;;;;;;21.93;30.66;99952.03;5058180;28;20419;-76
2022/07/02 00:13:53;;;;;;;12.10;4.63;;;;;;;21.88;30.49;99944.56;5058784;28;20070;-75
2022/07/02 00:16:22;;;;;;;10.30;4.07;;;;;;;21.93;30.51;99950.16;5058813;28;20117;-75
2022/07/02 00:18:48;;;;;;;13.73;4.65;;;;;;;21.97;30.77;99959.50;5075590;28;20479;-75
2022/07/02 00:21:14;;;;;;;11.15;4.72;;;;;;;21.79;30.78;99931.59;5058482;28;20039;-77
2022/07/02 00:23:40;;;;;;;9.60;5.18;;;;;;;21.85;30.98;99953.13;5025498;28;20042;-76
2022/07/02 00:26:17;;;;;;;9.65;5.20;;;;;;;22.09;30.90;99957.69;5024966;28;20047;-75
2022/07/02 00:28:46;;;;;;;15.82;5.68;;;;;;;21.97;30.92;99945.97;5074918;28;20052;-76
2022/07/02 00:31:12;;;;;;;10.65;4.57;;;;;;;21.89;30.68;99961.63;5041623;28;20043;-75
2022/07/02 00:33:38;;;;;;;9.35;4.90;;;;;;;21.88;30.73;99963.50;5057904;28;20526;-75
2022/07/02 00:36:04;;;;;;;9.18;4.32;;;;;;;21.95;30.67;99961.59;5041623;28;20136;-75
2022/07/02 00:38:30;;;;;;;18.25;4.70;;;;;;;21.96;30.57;99962.44;5074473;28;20109;-75
2022/07/02 00:40:57;;;;;;;10.85;4.68;;;;;;;21.92;31.10;99963.91;5092438;28;20043;-75
2022/07/02 00:43:24;;;;;;;15.23;4.55;;;;;;;21.87;31.27;99972.69;5057726;28;20081;-75
2022/07/02 00:45:50;;;;;;;11.52;4.90;;;;;;;21.81;31.18;99964.63;5074517;28;20040;-76
2022/07/02 00:48:16;;;;;;;11.90;4.70;;;;;;;21.70;31.63;99977.81;5057938;28;20408;-76
2022/07/02 00:50:42;;;;;;;12.63;4.63;;;;;;;21.68;31.02;99977.19;5058880;28;20553;-75
2022/07/02 00:53:07;;;;;;;17.42;5.43;;;;;;;21.64;31.12;99970.59;5024851;28;20055;-75
2022/07/02 00:55:33;;;;;;;11.90;5.00;;;;;;;21.66;31.36;99973.88;5057838;28;20066;-77
2022/07/02 00:57:59;;;;;;;16.23;4.72;;;;;;;21.63;31.06;99974.31;5024863;28;20060;-75
2022/07/02 01:00:25;;;;;;;11.13;4.53;;;;;;;21.65;31.13;99976.78;5057830;28;20047;-76
2022/07/02 01:02:51;;;;;;;14.48;4.43;;;;;;;21.82;31.09;99980.63;5057600;28;20051;-75
2022/07/02 01:05:20;;;;;;;13.30;4.68;;;;;;;21.85;30.87;99969.38;5057712;28;20472;-75
2022/07/02 01:10:16;;;;;;;15.85;4.78;;;;;;;21.81;30.95;99968.16;5074976;28;20506;-76
2022/07/02 01:10:48;;;;;;;17.23;4.45;;;;;;;21.89;30.76;99984.13;5044122;28;20131;-75
2022/07/02 01:13:14;;;;;;;15.63;5.35;;;;;;;21.69;31.25;99975.31;5094656;28;20047;-76
2022/07/02 01:15:40;;;;;;;10.57;4.43;;;;;;;21.77;31.12;99985.06;5042648;28;20055;-76
2022/07/02 01:18:07;;;;;;;11.70;5.03;;;;;;;21.74;31.58;99970.09;5058096;28;20550;-77
2022/07/02 01:20:33;;;;;;;16.95;6.20;;;;;;;21.68;31.20;99989.88;5023953;28;20040;-76
2022/07/02 01:22:59;;;;;;;11.18;5.55;;;;;;;21.69;31.18;99984.25;5041673;28;20040;-76
2022/07/02 01:25:25;;;;;;;14.98;5.43;;;;;;;21.67;31.24;99980.13;5024647;28;20047;-76
2022/07/02 01:27:50;;;;;;;14.90;5.65;;;;;;;21.71;31.42;99981.34;5040812;28;20088;-76
2022/07/02 01:30:16;;;;;;;21.70;5.68;;;;;;;21.77;31.29;99987.75;5073736;28;20423;-75
2022/07/02 01:32:42;;;;;;;11.68;5.55;;;;;;;21.76;31.29;99980.72;5072823;28;20078;-75
2022/07/02 01:35:09;;;;;;;12.90;5.10;;;;;;;21.88;30.85;99989.75;5040223;28;20048;-76
2022/07/02 01:37:37;;;;;;;11.32;5.70;;;;;;;21.98;31.13;99985.47;5057069;28;20694;-75
2022/07/02 01:40:04;;;;;;;11.95;5.40;;;;;;;21.93;31.56;99992.59;5023693;28;20517;-75
2022/07/02 01:42:30;;;;;;;13.27;5.20;;;;;;;21.99;31.22;99986.31;5056663;28;20117;-76
2022/07/02 01:44:56;;;;;;;15.52;5.97;;;;;;;21.97;31.14;99991.13;5056715;28;20261;-76
2022/07/02 01:47:23;;;;;;;16.20;5.70;;;;;;;21.96;31.37;100000.28;5073613;28;20118;-76
2022/07/02 01:49:48;;;;;;;18.58;6.47;;;;;;;21.94;31.37;99995.06;5090574;28;20197;-78
2022/07/02 01:52:15;;;;;;;14.00;6.13;;;;;;;21.97;30.91;99983.00;5057035;28;20130;-76
2022/07/02 01:54:41;;;;;;;15.02;6.13;;;;;;;21.97;31.14;99986.53;5056706;28;20112;-75
2022/07/02 01:57:07;;;;;;;15.82;6.60;;;;;;;21.99;30.96;99997.94;5058068;28;20056;-76
2022/07/02 01:59:35;;;;;;;15.57;5.75;;;;;;;22.09;31.20;100005.56;5056495;28;20048;-76
2022/07/02 02:02:04;;;;;;;15.23;5.60;;;;;;;22.27;30.90;100010.97;5023222;28;20063;-77
2022/07/02 02:04:31;;;;;;;12.20;5.22;;;;;;;22.14;30.91;100006.53;5039840;28;20036;-76
2022/07/02 02:06:57;;;;;;;16.60;4.57;;;;;;;22.12;31.12;100005.94;5072983;28;20504;-76
2022/07/02 02:09:23;;;;;;;15.43;5.55;;;;;;;22.11;31.10;100020.50;5039915;28;20062;-77
2022/07/02 02:11:51;;;;;;;15.98;4.95;;;;;;;22.12;31.25;100005.94;5089860;28;20048;-76
2022/07/02 02:14:17;;;;;;;15.30;4.68;;;;;;;22.20;30.88;100018.34;5039832;28;20070;-76
2022/07/02 02:16:42;;;;;;;20.17;5.18;;;;;;;22.25;30.83;100016.63;5039557;28;20055;-75
2022/07/02 02:19:08;;;;;;;13.15;5.13;;;;;;;22.39;31.04;100026.25;5039356;28;20093;-75
2022/07/02 02:21:34;;;;;;;11.00;4.53;;;;;;;22.36;30.87;100023.16;5056152;28;20032;-76
2022/07/02 02:24:00;;;;;;;15.52;4.70;;;;;;;22.49;31.11;100018.47;5055554;28;20127;-75
2022/07/02 02:26:26;;;;;;;18.30;4.78;;;;;;;22.55;31.00;100024.88;5056171;28;20052;-76
2022/07/02 02:28:53;;;;;;;11.70;4.45;;;;;;;22.65;31.19;100023.28;5039686;28;20036;-76
2022/07/02 02:31:20;;;;;;;12.40;5.60;;;;;;;22.69;30.99;100019.09;5056281;28;20047;-76
2022/07/02 02:33:46;;;;;;;14.93;5.28;;;;;;;22.78;30.40;100016.88;5073067;28;20039;-76
2022/07/02 02:36:12;;;;;;;12.82;4.50;;;;;;;22.69;30.79;100013.66;5073061;28;20044;-76
2022/07/02 02:38:38;;;;;;;14.52;4.93;;;;;;;22.80;30.72;100017.50;5023675;28;20101;-76
2022/07/02 02:41:07;;;;;;;15.15;5.20;;;;;;;22.96;30.54;100025.81;5073086;28;20479;-76
2022/07/02 02:43:34;;;;;;;11.65;5.32;;;;;;;23.06;30.62;100027.97;5056458;28;20055;-76
2022/07/02 02:46:02;;;;;;;12.43;5.38;;;;;;;23.15;30.51;100032.88;5076047;28;20036;-76
2022/07/02 02:48:28;;;;;;;11.02;4.93;;;;;;;23.17;30.36;100029.91;5043802;28;20384;-76
2022/07/02 02:50:55;;;;;;;19.35;4.97;;;;;;;23.10;30.35;99993.94;5060576;28;20035;-76
2022/07/02 02:53:21;;;;;;;15.20;5.30;;;;;;;23.22;30.11;100030.88;5095071;28;20077;-76
2022/07/02 02:55:47;;;;;;;11.07;4.78;;;;;;;23.26;30.05;100029.38;5077288;28;20078;-76
2022/07/02 02:58:13;;;;;;;14.82;5.80;;;;;;;23.28;30.27;100027.28;5043671;28;20479;-76
2022/07/02 03:00:39;;;;;;;18.65;5.78;;;;;;;23.27;30.84;100022.09;5026452;28;20036;-76
2022/07/02 03:03:04;;;;;;;22.10;5.70;;;;;;;23.24;30.33;100004.41;5076064;28;20472;-76
2022/07/02 03:05:30;;;;;;;20.33;5.47;;;;;;;23.41;30.40;100023.53;5042803;28;20040;-76
2022/07/02 03:07:56;;;;;;;17.55;5.00;;;;;;;23.45;30.38;100021.22;5043160;28;20062;-76
2022/07/02 03:10:22;;;;;;;12.77;5.38;;;;;;;23.51;30.27;100023.78;5026701;28;20543;-76
2022/07/02 03:12:48;;;;;;;20.02;6.05;;;;;;;23.52;29.88;100014.63;5043446;28;20054;-76
2022/07/02 03:15:14;;;;;;;14.43;5.45;;;;;;;23.62;29.71;100019.47;5026519;28;20062;-76
2022/07/02 03:17:39;;;;;;;13.95;5.65;;;;;;;23.64;29.66;100015.47;5075793;28;20138;-76
2022/07/02 03:20:06;;;;;;;13.95;5.53;;;;;;;23.73;29.63;100022.19;5042621;28;20052;-76
2022/07/02 03:22:31;;;;;;;12.48;5.45;;;;;;;23.75;29.58;100016.53;5042670;28;20044;-75
2022/07/02 03:24:57;;;;;;;17.75;5.65;;;;;;;23.75;29.64;100022.81;5075594;28;20400;-76
2022/07/02 03:27:24;;;;;;;13.35;5.20;;;;;;;23.83;29.44;100022.47;5042795;28;20040;-75
2022/07/02 03:29:51;;;;;;;17.13;5.97;;;;;;;23.96;30.11;100026.84;5076065;28;20090;-75
2022/07/02 03:32:17;;;;;;;12.48;5.47;;;;;;;23.96;29.75;100024.13;5093864;28;20051;-75
2022/07/02 03:34:43;;;;;;;12.70;5.28;;;;;;;24.00;28.93;100025.34;5075430;28;20067;-76
2022/07/02 03:37:09;;;;;;;15.88;5.50;;;;;;;24.03;28.89;100031.09;5025612;28;20086;-76
2022/07/02 03:39:35;;;;;;;14.48;5.22;;;;;;;24.06;28.65;100018.97;5025587;28;20044;-76
2022/07/02 03:42:00;;;;;;;14.77;5.15;;;;;;;24.11;28.36;100029.94;5075267;28;20147;-76
2022/07/02 03:44:26;;;;;;;11.63;5.43;;;;;;;24.20;28.09;100025.81;5075302;28;20043;-77
2022/07/02 03:46:52;;;;;;;15.35;4.60;;;;;;;24.20;27.67;100020.38;5042273;28;20036;-75
2022/07/02 03:49:18;;;;;;;13.35;4.78;;;;;;;24.31;27.34;100033.94;5042230;28;20078;-74
2022/07/02 03:51:43;;;;;;;28.38;4.97;;;;;;;24.35;27.29;100035.13;5025318;28;20096;-74
2022/07/02 03:54:09;;;;;;;12.50;5.00;;;;;;;24.42;27.68;100045.84;5025443;28;20039;-75
2022/07/02 03:56:35;;;;;;;14.40;4.85;;;;;;;24.54;27.42;100046.69;5074870;28;20412;-75
2022/07/02 03:59:01;;;;;;;15.00;4.93;;;;;;;24.58;27.37;100053.28;5058371;28;20415;-75
2022/07/02 04:01:26;;;;;;;12.60;4.57;;;;;;;24.66;27.16;100042.88;5059000;28;20055;-76
2022/07/02 04:03:52;;;;;;;14.50;4.80;;;;;;;24.73;27.20;100050.91;5075542;28;20076;-76
2022/07/02 04:06:18;;;;;;;13.82;4.88;;;;;;;24.44;26.98;100001.13;5059016;28;20079;-75
2022/07/02 04:08:43;;;;;;;14.65;4.93;;;;;;;24.82;26.74;100052.19;5042005;28;20036;-75
2022/07/02 04:11:09;;;;;;;18.92;5.40;;;;;;;24.85;26.62;100057.97;5041992;28;20040;-76
2022/07/02 04:13:35;;;;;;;9.73;4.88;;;;;;;24.94;26.82;100066.56;5025980;28;20052;-75
2022/07/02 04:16:01;;;;;;;12.90;4.35;;;;;;;24.88;26.06;100039.56;5055291;28;20067;-75
2022/07/02 04:18:27;;;;;;;13.63;4.47;;;;;;;25.06;26.00;100050.25;5072379;28;20167;-76
2022/07/02 04:20:52;;;;;;;14.32;4.25;;;;;;;25.15;25.42;100048.78;5022259;28;20048;-75
2022/07/02 04:23:18;;;;;;;22.13;4.20;;;;;;;25.22;25.52;100052.19;5054694;28;20041;-75
2022/07/02 04:25:44;;;;;;;8.55;3.95;;;;;;;25.24;25.33;100055.47;5054247;28;20048;-75
2022/07/02 04:28:11;;;;;;;14.13;4.22;;;;;;;25.34;25.19;100050.28;5037832;28;20040;-76
2022/07/02 04:30:37;;;;;;;9.15;4.00;;;;;;;25.37;24.75;100050.59;5054691;28;20510;-76
2022/07/02 04:33:02;;;;;;;11.98;4.00;;;;;;;25.44;24.63;100050.47;5037985;28;20044;-76
2022/07/02 04:35:30;;;;;;;13.38;4.30;;;;;;;25.45;24.68;100042.06;5054223;28;20068;-76
2022/07/02 04:37:56;;;;;;;16.85;4.22;;;;;;;25.53;24.51;100041.66;5055537;28;20068;-75
2022/07/02 04:40:22;;;;;;;9.52;3.95;;;;;;;25.63;24.32;100050.00;5071476;28;20054;-75
2022/07/02 04:42:47;;;;;;;9.23;4.20;;;;;;;25.60;23.71;100027.91;5054539;28;20045;-75
2022/07/02 04:45:13;;;;;;;10.20;4.70;;;;;;;25.77;23.92;100045.06;5021590;28;20045;-75
2022/07/02 04:47:39;;;;;;;10.18;4.30;;;;;;;25.86;23.79;100044.41;5021189;28;20047;-76
2022/07/02 04:50:05;;;;;;;10.25;3.97;;;;;;;25.97;23.58;100043.50;5020986;28;20465;-76
2022/07/02 04:52:34;;;;;;;9.68;4.35;;;;;;;26.02;23.32;100046.34;5070851;28;20403;-74
2022/07/02 04:55:00;;;;;;;12.80;4.13;;;;;;;26.15;23.04;100047.91;5053883;28;20127;-76
2022/07/02 04:57:25;;;;;;;12.30;4.28;;;;;;;26.17;23.19;100045.75;5037892;28;20091;-76
2022/07/02 04:59:51;;;;;;;6.35;4.10;;;;;;;26.26;23.05;100041.53;5054155;28;20048;-76
2022/07/02 05:02:17;;;;;;;10.88;4.30;;;;;;;26.28;22.79;100037.47;5054345;28;20118;-76
2022/07/02 05:04:43;;;;;;;7.03;3.95;;;;;;;26.37;22.92;100038.69;5020951;28;20097;-75
2022/07/02 05:07:09;;;;;;;8.82;4.00;;;;;;;26.46;22.65;100034.47;5019991;28;20070;-76
2022/07/02 05:09:34;;;;;;;11.75;4.15;;;;;;;26.52;22.75;100029.94;5021004;28;20562;-76
2022/07/02 05:12:00;;;;;;;7.47;4.07;;;;;;;26.57;22.41;100024.53;5038091;28;20124;-77
2022/07/02 05:14:26;;;;;;;11.50;4.20;;;;;;;26.63;22.57;100019.97;5054514;28;20079;-76
2022/07/02 05:16:52;;;;;;;11.43;3.75;;;;;;;26.72;22.27;100035.69;5021248;28;20392;-79
2022/07/02 05:19:18;;;;;;;10.43;3.80;;;;;;;26.76;21.79;100028.63;5054737;28;20139;-76
2022/07/02 05:21:44;;;;;;;8.98;3.92;;;;;;;26.78;21.38;100042.00;5070541;28;20041;-76
2022/07/02 05:24:10;;;;;;;11.00;3.60;;;;;;;26.86;21.37;100036.94;5037500;28;20050;-76
2022/07/02 05:26:36;;;;;;;7.78;3.83;;;;;;;26.78;21.29;100017.47;5053600;28;20071;-76
2022/07/02 05:29:03;;;;;;;11.38;3.67;;;;;;;26.99;21.50;100039.28;5053267;28;20079;-76
2022/07/02 05:31:29;;;;;;;15.05;4.38;;;;;;;26.92;21.31;100037.81;5053744;28;20400;-76
2022/07/02 05:33:54;;;;;;;9.43;3.53;;;;;;;26.87;20.86;100027.69;5020491;28;20450;-76
2022/07/02 05:36:20;;;;;;;11.60;3.60;;;;;;;26.81;21.15;100017.81;5037767;28;20045;-75
2022/07/02 05:38:46;;;;;;;8.02;3.90;;;;;;;26.87;21.09;100032.31;5038430;28;20044;-76
2022/07/02 05:41:12;;;;;;;14.77;4.10;;;;;;;26.93;21.08;100029.41;5021709;28;20165;-76
2022/07/02 05:43:37;;;;;;;8.52;4.30;;;;;;;27.03;20.99;100029.50;5071122;28;20045;-76
2022/07/02 05:46:03;;;;;;;16.25;4.95;;;;;;;27.09;21.01;100012.16;5037111;28;20131;-76
2022/07/02 05:48:29;;;;;;;8.63;3.88;;;;;;;27.21;20.22;100020.16;5020754;28;20071;-76
2022/07/02 05:50:55;;;;;;;10.15;4.45;;;;;;;27.13;19.90;99999.63;5020111;28;20044;-76
2022/07/02 05:53:20;;;;;;;8.75;4.13;;;;;;;27.32;19.99;100016.50;5020132;28;20517;-76
2022/07/02 05:55:46;;;;;;;8.07;4.20;;;;;;;27.44;19.50;100011.69;5069744;28;20032;-76
2022/07/02 05:58:12;;;;;;;11.05;4.95;;;;;;;27.48;19.69;100008.19;5036583;28;20067;-76
2022/07/02 06:00:38;;;;;;;11.55;4.80;;;;;;;27.63;20.01;100000.13;5071035;28;20502;-76
2022/07/02 06:03:04;;;;;;;9.38;3.50;;;;;;;27.67;19.29;100008.63;5053060;28;20040;-76
2022/07/02 06:08:14;;;;;;;9.35;3.30;;;;;;;27.85;19.21;100009.06;5055744;28;20080;-76
2022/07/02 06:10:41;;;;;;;5.88;3.33;;;;;;;27.98;18.96;100016.03;5053164;28;20060;-76
2022/07/02 06:13:06;;;;;;;6.90;3.92;;;;;;;27.99;19.08;100014.94;5036480;28;20060;-77
2022/07/02 06:15:32;;;;;;;8.60;3.75;;;;;;;28.11;18.66;100001.09;5053228;28;20106;-75
2022/07/02 06:18:01;;;;;;;6.47;3.30;;;;;;;28.21;18.66;100001.16;5037497;28;20048;-75
2022/07/02 06:20:27;;;;;;;8.70;3.60;;;;;;;28.33;18.22;100008.06;5073518;28;20577;-76
2022/07/02 06:22:53;;;;;;;8.32;3.30;;;;;;;28.47;18.37;100000.22;5057466;28;20496;-75
2022/07/02 06:25:19;;;;;;;5.50;3.50;;;;;;;28.66;18.06;99995.97;5040872;28;20040;-76
2022/07/02 06:27:45;;;;;;;6.15;3.40;;;;;;;28.68;17.83;100001.97;5074378;28;20050;-76
2022/07/02 06:30:11;;;;;;;9.00;3.72;;;;;;;28.75;17.92;99992.47;5074172;28;20044;-76
2022/07/02 06:32:38;;;;;;;9.27;3.70;;;;;;;28.80;17.96;99986.19;5040597;28;20048;-76
2022/07/02 06:35:04;;;;;;;3.70;2.90;;;;;;;28.86;17.31;99996.03;5057203;28;20500;-76
2022/07/02 06:37:30;;;;;;;13.25;3.50;;;;;;;28.86;17.81;99991.38;5025483;28;20486;-75
2022/07/02 06:39:56;;;;;;;6.63;3.45;;;;;;;29.00;17.47;99997.19;5040835;28;20052;-76
2022/07/02 06:42:29;;;;;;;7.70;2.90;;;;;;;29.09;17.34;99984.66;5040219;28;20048;-76
2022/07/02 06:44:58;;;;;;;4.47;2.97;;;;;;;29.29;17.10;99990.97;5042160;28;20131;-76
2022/07/02 06:47:27;;;;;;;6.65;3.08;;;;;;;29.36;16.73;99988.81;5073556;28;20044;-76
2022/07/02 06:49:56;;;;;;;5.75;3.10;;;;;;;29.46;16.75;99979.78;5056808;28;20028;-76
2022/07/02 06:52:23;;;;;;;4.77;3.37;;;;;;;29.37;16.63;99987.72;5056537;28;20044;-76
2022/07/02 06:54:48;;;;;;;8.02;3.10;;;;;;;29.46;16.52;99988.00;5073167;28;20504;-76
2022/07/02 06:57:14;;;;;;;4.35;3.22;;;;;;;29.50;16.59;99987.19;5040318;28;20036;-76
2022/07/02 06:59:40;;;;;;;9.95;3.65;;;;;;;29.53;16.52;99992.13;5040132;28;20090;-76
2022/07/02 07:02:10;;;;;;;8.40;3.30;;;;;;;29.61;16.10;99986.06;5057338;28;20079;-76
2022/07/02 07:04:36;;;;;;;7.72;4.05;;;;;;;29.75;16.53;99989.13;5040524;28;20049;-77
2022/07/02 07:07:05;;;;;;;8.05;4.63;;;;;;;29.94;16.16;99989.41;5040964;28;20051;-76
2022/07/02 07:09:34;;;;;;;9.98;3.45;;;;;;;30.04;16.22;99992.13;5025051;28;20040;-75
2022/07/02 07:12:04;;;;;;;12.35;3.70;;;;;;;29.96;16.16;99962.53;5041375;28;20496;-76
2022/07/02 07:14:31;;;;;;;9.25;3.70;;;;;;;30.19;16.11;99983.84;5057498;28;20037;-75
2022/07/02 07:16:56;;;;;;;8.90;3.67;;;;;;;30.34;16.16;99986.59;5041921;28;20665;-75
2022/07/02 07:19:25;;;;;;;4.85;3.63;;;;;;;30.56;16.17;99984.34;5024418;28;20094;-75
2022/07/02 07:21:51;;;;;;;13.35;4.18;;;;;;;31.08;15.29;99988.22;5056662;28;20078;-75
2022/07/02 07:24:17;;;;;;;7.75;3.85;;;;;;;31.38;15.02;99981.75;5039552;28;20080;-76
2022/07/02 07:26:43;;;;;;;8.30;3.20;;;;;;;31.80;14.58;99978.41;5023545;28;20070;-76
2022/07/02 07:29:12;;;;;;;6.40;3.30;;;;;;;32.14;14.34;99976.44;5057194;28;20055;-76
2022/07/02 07:31:38;;;;;;;13.50;3.70;;;;;;;32.65;13.97;99964.59;5072607;28;20044;-77
2022/07/02 07:34:04;;;;;;;10.38;3.13;;;;;;;33.58;13.00;99980.38;5057389;28;20044;-76
2022/07/02 07:36:30;;;;;;;11.20;3.25;;;;;;;34.32;12.68;99976.59;5056899;28;20052;-76
2022/07/02 07:38:56;;;;;;;10.60;3.50;;;;;;;35.20;11.69;99980.53;5055836;28;20419;-76
2022/07/02 07:41:23;;;;;;;4.75;3.00;;;;;;;36.28;10.61;99965.38;5039237;28;20060;-76
2022/07/02 07:43:51;;;;;;;8.95;3.65;;;;;;;37.40;10.16;99958.22;5055670;28;20109;-76
2022/07/02 07:46:18;;;;;;;9.25;3.45;;;;;;;39.05;9.33;99966.16;5055991;28;20086;-76
2022/07/02 07:48:44;;;;;;;6.25;3.28;;;;;;;40.39;8.15;99948.81;5056569;28;20521;-76
2022/07/02 07:51:09;;;;;;;7.55;2.70;;;;;;;42.03;6.89;99966.22;5039866;28;20040;-77
2022/07/02 07:53:35;;;;;;;9.35;2.80;;;;;;;44.05;5.99;99972.13;5039958;28;20536;-77
2022/07/02 07:56:01;;;;;;;9.18;2.80;;;;;;;46.28;4.51;99966.47;5023409;28;20462;-78
2022/07/02 07:58:27;;;;;;;8.07;2.67;;;;;;;48.24;3.60;99977.97;5024313;28;20573;-76
2022/07/02 08:00:52;;;;;;;4.10;2.55;;;;;;;49.58;2.91;99958.78;5029746;28;20205;-76
2022/07/02 08:03:19;;;;;;;9.25;2.92;;;;;;;50.48;2.76;99965.09;5028543;28;20070;-76
2022/07/02 08:05:53;;;;;;;10.50;2.45;;;;;;;51.06;2.14;99958.47;5026458;28;20047;-76
2022/07/02 08:08:20;;;;;;;9.68;2.60;;;;;;;51.56;1.87;99958.66;5061782;28;20056;-77
2022/07/02 08:10:46;;;;;;;4.65;2.50;;;;;;;52.31;1.93;99976.19;5056204;28;20071;-77
2022/07/02 08:13:12;;;;;;;7.63;2.55;;;;;;;52.54;1.44;99968.50;5022526;28;20534;-77
2022/07/02 08:15:38;;;;;;;8.48;2.53;;;;;;;52.91;1.28;99967.41;5022239;28;20530;-78
2022/07/02 08:18:04;;;;;;;5.30;2.20;;;;;;;53.56;1.39;99968.53;5022529;28;20072;-78
2022/07/02 08:20:32;;;;;;;4.70;2.20;;;;;;;54.26;1.22;99953.50;5054575;28;20151;-77
2022/07/02 08:22:59;;;;;;;5.43;2.10;;;;;;;54.55;1.04;99948.69;5071212;28;20051;-77
2022/07/02 08:25:32;;;;;;;7.18;2.50;;;;;;;54.97;0.68;99952.41;5072406;28;20102;-77
2022/07/02 08:27:57;;;;;;;8.98;2.50;;;;;;;55.18;0.57;99956.75;5022510;28;20181;-77
2022/07/02 08:30:24;;;;;;;6.00;2.35;;;;;;;55.46;0.56;99935.94;5039902;28;20095;-78
2022/07/02 08:32:51;;;;;;;4.88;2.15;;;;;;;55.74;0.20;99935.88;5056160;28;20052;-78
2022/07/02 08:35:18;;;;;;;5.28;1.92;;;;;;;56.46;0.11;99923.69;5056016;28;20249;-78
2022/07/02 08:37:43;;;;;;;7.05;2.20;;;;;;;56.80;0.00;99937.97;5071914;28;20491;-78
2022/07/02 08:40:10;;;;;;;7.93;2.40;;;;;;;57.04;0.00;99925.66;5037941;28;20083;-78
2022/07/02 08:42:36;;;;;;;8.80;2.92;;;;;;;57.14;0.00;99926.50;5022021;28;20446;-78
2022/07/02 08:45:03;;;;;;;8.48;2.22;;;;;;;56.95;0.00;99917.03;5054325;28;20040;-79
2022/07/02 08:47:31;;;;;;;4.80;2.40;;;;;;;56.94;0.00;99917.47;5055022;28;20557;-77
2022/07/02 08:49:59;;;;;;;6.18;2.30;;;;;;;57.01;0.00;99908.66;5037624;28;20044;-78
2022/07/02 08:52:27;;;;;;;6.25;1.90;;;;;;;57.19;0.00;99915.25;5054379;28;20103;-78
2022/07/02 08:54:54;;;;;;;2.97;2.10;;;;;;;57.58;0.00;99910.91;5037500;28;20056;-78
2022/07/02 08:57:21;;;;;;;6.70;2.03;;;;;;;57.55;0.00;99900.41;5070615;28;20037;-77
2022/07/02 08:59:47;;;;;;;8.15;2.00;;;;;;;57.60;0.00;99909.19;5070501;28;20129;-77
2022/07/02 09:02:15;;;;;;;2.50;2.30;;;;;;;57.72;0.00;99896.84;5070472;28;20041;-78
2022/07/02 09:04:45;;;;;;;5.63;1.92;;;;;;;58.43;0.00;99896.72;5072057;28;20127;-77
2022/07/02 09:07:12;;;;;;;4.18;2.03;;;;;;;58.67;0.00;99889.84;5021749;28;20147;-77
2022/07/02 09:09:41;;;;;;;3.97;1.75;;;;;;;58.67;0.00;99889.84;5054439;28;20040;-79
2022/07/02 09:12:13;;;;;;;10.10;2.40;;;;;;;58.87;0.00;99893.03;5005865;28;20048;-77
2022/07/02 09:14:40;;;;;;;8.93;2.20;;;;;;;58.48;0.00;99884.63;5054445;28;20546;-78
2022/07/02 09:17:07;;;;;;;6.05;2.33;;;;;;;58.59;0.00;99877.13;5058060;28;20050;-77
2022/07/02 09:19:34;;;;;;;4.68;2.20;;;;;;;59.01;0.00;99883.81;5059995;28;20498;-76
2022/07/02 09:22:00;;;;;;;10.05;1.95;;;;;;;59.20;0.00;99883.75;5074492;28;20044;-77
2022/07/02 09:24:35;;;;;;;7.60;2.50;;;;;;;59.04;0.00;99873.44;5057661;28;20085;-77
2022/07/02 09:27:09;;;;;;;6.90;2.13;;;;;;;59.13;0.00;99881.25;5074945;28;20087;-78
2022/07/02 09:29:50;;;;;;;4.43;2.00;;;;;;;59.38;0.00;99861.56;5058764;28;20035;-77
2022/07/02 09:32:17;;;;;;;9.10;2.30;;;;;;;59.27;0.00;99860.53;5061711;28;20071;-78
2022/07/02 09:34:45;;;;;;;4.90;2.20;;;;;;;58.89;0.00;99852.47;5047521;28;20043;-77
2022/07/02 09:37:20;;;;;;;;;;;;;;;58.88;0.00;99851.69;5084142;28;20051;-78
2022/07/02 09:39:48;;;;;;;4.15;2.00;;;;;;;58.80;0.00;99849.63;5086116;28;19920;-78
2022/07/02 09:42:26;;;;;;;9.63;2.27;;;;;;;59.17;0.00;99841.72;5087745;28;20048;-77
2022/07/02 09:44:52;;;;;;;8.75;2.30;;;;;;;58.88;0.00;99820.19;5087814;28;20282;-77
2022/07/02 09:47:38;;;;;;;6.43;2.20;;;;;;;58.66;0.00;99845.31;5055967;28;20117;-77
2022/07/02 09:50:08;;;;;;;8.80;2.40;;;;;;;58.37;0.00;99819.25;5055857;28;20040;-77
2022/07/02 09:52:34;;;;;;;8.98;2.58;;;;;;;58.29;0.00;99820.03;5054999;28;20040;-77
2022/07/02 09:55:01;;;;;;;13.88;2.80;;;;;;;58.40;0.00;99789.66;5068207;28;20116;-76
2022/07/02 09:57:28;;;;;;;9.45;2.30;;;;;;;58.45;0.00;99817.69;5104147;28;20048;-77
2022/07/02 09:59:54;;;;;;;9.75;2.28;;;;;;;58.22;0.00;99814.66;5063382;28;20047;-77
2022/07/02 10:02:22;;;;;;;7.88;2.70;;;;;;;58.22;0.00;99812.59;5059060;28;20048;-78
2022/07/02 10:04:52;;;;;;;7.13;2.00;;;;;;;58.62;0.00;99809.53;5041304;28;20044;-76
2022/07/02 10:07:22;;;;;;;6.85;2.10;;;;;;;59.13;0.00;99793.97;5040867;28;20051;-77
2022/07/02 10:09:52;;;;;;;11.48;2.70;;;;;;;59.12;0.00;99790.84;5091621;28;20092;-78
2022/07/02 10:12:19;;;;;;;7.18;2.60;;;;;;;58.94;0.00;99786.72;5091173;28;20513;-78
2022/07/02 10:14:46;;;;;;;4.78;2.00;;;;;;;59.15;0.00;99795.59;5073274;28;20047;-78
2022/07/02 10:17:15;;;;;;;8.20;2.35;;;;;;;59.51;0.00;99793.34;5056580;28;20040;-78
2022/07/02 10:19:42;;;;;;;8.85;2.17;;;;;;;59.66;0.00;99790.56;5091215;28;20052;-77
2022/07/02 10:22:08;;;;;;;5.43;2.40;;;;;;;59.73;0.00;99784.47;5056249;28;20070;-77
2022/07/02 10:24:36;;;;;;;5.55;2.30;;;;;;;59.74;0.00;99766.78;5039789;28;20574;-76
2022/07/02 10:27:02;;;;;;;;;;;;;;;59.52;0.00;99769.13;5091959;28;20450;-77
2022/07/02 10:29:28;;;;;;;7.50;2.60;;;;;;;59.39;0.00;99765.72;5056726;28;19924;-76
2022/07/02 10:32:36;;;;;;;7.47;2.72;;;;;;;59.06;0.00;99764.88;5056462;28;20047;-79
2022/07/02 10:35:11;;;;;;;13.48;2.60;;;;;;;59.17;0.00;99770.09;5006884;28;20090;-77
2022/07/02 10:37:40;;;;;;;9.60;2.45;;;;;;;59.01;0.00;99760.63;5072936;28;20044;-77
2022/07/02 10:40:07;;;;;;;10.60;2.50;;;;;;;58.70;0.00;99760.06;5023093;28;20072;-78
2022/07/02 10:42:41;;;;;;;13.30;2.85;;;;;;;58.27;0.00;99754.69;5056294;28;20094;-77
2022/07/02 10:45:10;;;;;;;11.63;3.10;;;;;;;58.38;0.00;99745.63;5072687;28;20055;-77
2022/07/02 10:47:35;;;;;;;7.57;2.25;;;;;;;58.33;0.00;99737.69;5072519;28;20508;-77
2022/07/02 10:50:02;;;;;;;11.20;4.85;;;;;;;58.20;0.00;99742.78;5055884;28;20046;-77
2022/07/02 10:52:51;;;;;;;;;;;;;;;57.92;0.00;99741.19;5090900;28;20131;-78
2022/07/02 10:55:26;;;;;;;14.07;2.72;;;;;;;57.17;0.00;99734.94;5072694;28;19926;-76
2022/07/02 10:58:00;;;;;;;9.57;2.30;;;;;;;56.69;0.00;99732.00;5072697;28;20135;-77
2022/07/02 11:00:37;;;;;;;15.95;2.60;;;;;;;56.59;0.00;99733.19;5055872;28;20040;-76
2022/07/02 11:03:15;;;;;;;10.00;2.83;;;;;;;56.55;0.00;99721.13;5072642;28;20192;-77
2022/07/02 11:06:06;;;;;;;14.30;2.90;;;;;;;56.29;0.00;99729.81;5073593;28;20048;-77
2022/07/02 11:08:41;;;;;;;8.38;2.35;;;;;;;55.42;0.00;99733.72;5043088;28;20048;-77
2022/07/02 11:11:17;;;;;;;7.97;2.33;;;;;;;53.32;0.43;99715.84;5076323;28;20064;-76
2022/07/02 11:13:47;;;;;;;10.60;2.55;;;;;;;50.85;1.11;99706.84;5076007;28;20173;-76
2022/07/02 11:16:24;;;;;;;11.10;2.53;;;;;;;48.95;2.00;99705.06;5072390;28;20508;-76
2022/07/02 11:18:51;;;;;;;10.82;3.30;;;;;;;47.64;2.80;99706.72;5072872;28;20104;-77
2022/07/02 11:21:18;;;;;;;11.68;2.55;;;;;;;46.27;3.29;99657.78;5072925;28;20147;-76
2022/07/02 11:23:44;;;;;;;13.73;3.22;;;;;;;45.25;3.42;99676.69;5072894;28;20500;-76
2022/07/02 11:26:15;;;;;;;8.25;3.42;;;;;;;44.30;3.76;99690.44;5022999;28;20067;-75
2022/07/02 11:28:41;;;;;;;5.28;2.72;;;;;;;43.39;4.15;99683.44;5056014;28;20036;-75
2022/07/02 11:31:10;;;;;;;16.80;3.90;;;;;;;42.72;5.01;99684.97;5055855;28;20049;-76
2022/07/02 11:33:40;;;;;;;8.10;3.40;;;;;;;42.22;4.94;99684.28;5072576;28;20048;-75